Festivo — EAEQ — position and weather

sailwx.info

Track history (hours):
 
Tides and Currents Weather Stations Pressure Air Temp Water Temp Dewpoint Dewpoint Depression Visibility Wind Speed Wind Dir Waves Ship Positions

Festivo

Last reported at 2015-Apr-25 16:32 UTC. Time now 2015-May-03 10:49 UTC.
Position N 35°55' W 005°16'.

Length 136 m; draft 4.5 m.

Type: Cargo ship. MMSI: 225410000.

Date/timePositionNaut miles runAvg speedWind from/ knotsBaromVisibWave heightAir tempDewpointWater temp
2015-Apr-25 16:32N 35°55' W 005°16'3 3.2
2015-Apr-25 15:33N 35°54' W 005°19'0 0.0
2015-Apr-25 14:32N 35°54' W 005°19'0 0.0
2015-Apr-25 13:32N 35°54' W 005°19'0 0.0
2015-Apr-25 12:32N 35°54' W 005°19'0 0.0
2015-Apr-25 11:29N 35°54' W 005°19'0 0.0
2015-Apr-25 10:32N 35°54' W 005°19'0 0.0
2015-Apr-25 09:33N 35°54' W 005°19'2 2.4
2015-Apr-25 08:33N 35°55' W 005°17'7 0.2
2015-Apr-23 14:19N 36°01' W 005°12'911.6
2015-Apr-23 13:33N 35°54' W 005°19'1 0.8
2015-Apr-23 12:33N 35°54' W 005°19'0 0.0
2015-Apr-23 11:33N 35°54' W 005°19'0 0.0
2015-Apr-23 10:33N 35°54' W 005°19'0 0.0
2015-Apr-23 09:33N 35°54' W 005°19'1 1.3
2015-Apr-23 08:33N 35°55' W 005°18'8 0.2
2015-Apr-21 10:34N 36°01' W 005°12'9 9.4
2015-Apr-21 09:33N 35°54' W 005°19'0 0.3
2015-Apr-21 08:32N 35°54' W 005°19'0 0.0
2015-Apr-21 07:32N 35°54' W 005°19'0 0.0
2015-Apr-21 06:32N 35°54' W 005°19'0 0.0
2015-Apr-21 05:32N 35°54' W 005°19'0 0.5
2015-Apr-21 04:34N 35°54' W 005°19'6 5.0
2015-Apr-21 03:27N 35°55' W 005°12'  
Track history (hours):
 
Tides and Currents Weather Stations Pressure Air Temp Water Temp Dewpoint Dewpoint Depression Visibility Wind Speed Wind Dir Waves Ship Positions

Festivo

Last reported at 2015-Apr-25 16:32 UTC. Time now 2015-May-03 10:49 UTC.
Position N 35°55' W 005°16'.

Length 136 m; draft 4.5 m.

Type: Cargo ship. MMSI: 225410000.

Date/timePositionNaut miles runAvg speedWind from/ knotsBaromVisibWave heightAir tempDewpointWater temp
2015-Apr-25 16:32N 35°55' W 005°16'3 3.2
2015-Apr-25 15:33N 35°54' W 005°19'0 0.0
2015-Apr-25 14:32N 35°54' W 005°19'0 0.0
2015-Apr-25 13:32N 35°54' W 005°19'0 0.0
2015-Apr-25 12:32N 35°54' W 005°19'0 0.0
2015-Apr-25 11:29N 35°54' W 005°19'0 0.0
2015-Apr-25 10:32N 35°54' W 005°19'0 0.0
2015-Apr-25 09:33N 35°54' W 005°19'2 2.4
2015-Apr-25 08:33N 35°55' W 005°17'7 0.2
2015-Apr-23 14:19N 36°01' W 005°12'911.6
2015-Apr-23 13:33N 35°54' W 005°19'1 0.8
2015-Apr-23 12:33N 35°54' W 005°19'0 0.0
2015-Apr-23 11:33N 35°54' W 005°19'0 0.0
2015-Apr-23 10:33N 35°54' W 005°19'0 0.0
2015-Apr-23 09:33N 35°54' W 005°19'1 1.3
2015-Apr-23 08:33N 35°55' W 005°18'8 0.2
2015-Apr-21 10:34N 36°01' W 005°12'9 9.4
2015-Apr-21 09:33N 35°54' W 005°19'0 0.3
2015-Apr-21 08:32N 35°54' W 005°19'0 0.0
2015-Apr-21 07:32N 35°54' W 005°19'0 0.0
2015-Apr-21 06:32N 35°54' W 005°19'0 0.0
2015-Apr-21 05:32N 35°54' W 005°19'0 0.5
2015-Apr-21 04:34N 35°54' W 005°19'6 5.0
2015-Apr-21 03:27N 35°55' W 005°12'  

Dump ship's entire track history